createdAt,value
2018-09-28T03:01:26.673Z,6.59
2018-09-28T03:02:27.176Z,6.59
2018-09-28T03:03:27.678Z,6.56
2018-09-28T03:04:27.325Z,6.57
2018-09-28T03:05:28.374Z,6.57
2018-09-28T03:06:27.888Z,6.62
2018-09-28T03:07:26.861Z,6.62
2018-09-28T03:08:26.892Z,6.66
2018-09-28T03:09:25.872Z,6.64
2018-09-28T03:10:25.833Z,6.69
2018-09-28T03:11:26.069Z,6.63
2018-09-28T03:12:26.325Z,6.67
2018-09-28T03:13:26.542Z,6.64
2018-09-28T03:14:26.549Z,6.66
2018-09-28T03:15:26.754Z,6.63
2018-09-28T03:16:27.035Z,6.56
2018-09-28T03:17:27.067Z,6.62
2018-09-28T03:18:27.572Z,6.56
2018-09-28T03:19:28.047Z,6.45
2018-09-28T03:20:27.664Z,6.59
2018-09-28T03:21:27.676Z,6.48
2018-09-28T03:22:27.714Z,6.51
2018-09-28T03:23:27.803Z,6.31
2018-09-28T03:24:28.255Z,6.35
2018-09-28T03:25:28.299Z,6.41
2018-09-28T03:26:28.442Z,6.52
2018-09-28T03:27:28.794Z,6.45
2018-09-28T03:28:29.251Z,6.54
2018-09-28T03:29:29.248Z,6.48
2018-09-28T03:30:29.166Z,6.63
2018-09-28T03:31:30.118Z,6.66
2018-09-28T03:32:29.495Z,6.75
2018-09-28T03:33:29.659Z,6.67
2018-09-28T03:34:30.011Z,6.70
2018-09-28T03:35:30.005Z,6.66
2018-09-28T03:36:30.215Z,6.60
2018-09-28T03:37:30.493Z,6.54
2018-09-28T03:38:30.665Z,6.49
2018-09-28T03:39:30.815Z,6.39
2018-09-28T03:40:30.906Z,6.33
2018-09-28T03:41:31.796Z,6.31
2018-09-28T03:42:31.230Z,6.31
2018-09-28T03:43:31.322Z,6.28
2018-09-28T03:44:31.634Z,6.20
2018-09-28T03:45:32.958Z,6.17
2018-09-28T03:47:32.234Z,6.24
2018-09-28T03:48:32.259Z,6.28
2018-09-28T03:49:32.352Z,6.27
2018-09-28T03:50:32.670Z,6.33
2018-09-28T03:51:32.891Z,6.41
2018-09-28T03:52:33.289Z,6.39
2018-09-28T03:53:33.274Z,6.31
2018-09-28T03:54:33.643Z,6.45
2018-09-28T03:55:33.718Z,6.30
2018-09-28T03:56:34.079Z,6.31
2018-09-28T03:57:34.186Z,6.28
2018-09-28T03:58:34.253Z,6.19
2018-09-28T03:59:34.465Z,6.24
2018-09-28T04:00:34.779Z,6.22
2018-09-28T04:01:34.826Z,6.27
2018-09-28T04:02:35.100Z,6.28
2018-09-28T04:03:35.378Z,6.20
2018-09-28T04:04:35.436Z,6.11
2018-09-28T04:05:35.595Z,6.14
2018-09-28T04:06:36.019Z,6.24
2018-09-28T04:07:35.972Z,6.24
2018-09-28T04:08:36.067Z,6.30
2018-09-28T04:09:36.270Z,6.20
2018-09-28T04:12:25.801Z,6.31
2018-09-28T04:13:25.811Z,6.36
2018-09-28T04:14:26.200Z,6.36
2018-09-28T04:15:26.445Z,6.38
2018-09-28T04:16:26.614Z,6.45
2018-09-28T04:17:27.913Z,6.56
2018-09-28T04:18:29.299Z,6.42
2018-09-28T04:19:27.430Z,6.48
2018-09-28T04:20:26.897Z,6.45
2018-09-28T04:21:25.619Z,6.42
2018-09-28T04:22:25.531Z,6.30
2018-09-28T04:23:25.507Z,6.36
2018-09-28T04:24:25.819Z,6.35
2018-09-28T04:25:25.966Z,6.30
2018-09-28T04:26:26.137Z,6.33
2018-09-28T04:27:26.350Z,6.48
2018-09-28T04:28:26.495Z,6.48
2018-09-28T04:29:27.707Z,6.49
2018-09-28T04:30:26.760Z,6.56
2018-09-28T04:31:26.973Z,6.42
2018-09-28T04:32:28.109Z,6.28
2018-09-28T04:33:27.349Z,6.31
2018-09-28T04:34:27.354Z,6.20
2018-09-28T04:35:27.379Z,6.28
2018-09-28T04:36:27.380Z,6.24
2018-09-28T04:37:27.591Z,6.27
2018-09-28T04:38:27.682Z,6.17
2018-09-28T04:39:27.916Z,6.02
2018-09-28T04:40:28.217Z,6.05
2018-09-28T04:41:28.353Z,5.98
2018-09-28T04:42:28.590Z,6.09
2018-09-28T04:43:28.767Z,6.07
2018-09-28T04:44:29.522Z,6.09
2018-09-28T04:45:29.112Z,6.07
2018-09-28T04:46:29.529Z,6.14
2018-09-28T04:47:29.316Z,6.27
2018-09-28T04:48:29.500Z,6.26
2018-09-28T04:49:30.083Z,6.22
2018-09-28T04:50:29.779Z,6.27
2018-09-28T04:51:30.029Z,6.20
2018-09-28T04:52:30.233Z,6.24
2018-09-28T04:53:30.317Z,6.31
2018-09-28T04:54:30.435Z,6.28
2018-09-28T04:55:30.708Z,6.33
2018-09-28T04:56:30.851Z,6.28
2018-09-28T04:57:30.978Z,6.24
2018-09-28T04:58:32.134Z,6.16
2018-09-28T04:59:31.427Z,6.20
2018-09-28T05:00:31.953Z,6.20
2018-09-28T05:01:31.858Z,6.26
2018-09-28T05:02:32.022Z,6.31
2018-09-28T05:03:39.466Z,6.33
2018-09-28T05:04:33.116Z,6.30
2018-09-28T05:05:35.248Z,6.31
2018-09-28T05:06:35.340Z,6.36
2018-09-28T05:07:34.850Z,6.35
2018-09-28T05:08:33.508Z,6.26
2018-09-28T05:09:35.537Z,6.33
2018-09-28T05:10:36.385Z,6.16
2018-09-28T05:11:34.117Z,6.33
2018-09-28T05:12:40.561Z,6.20
2018-09-28T05:13:37.552Z,6.33
2018-09-28T05:14:37.621Z,6.26
2018-09-28T05:15:35.752Z,6.28
2018-09-28T05:16:37.942Z,6.20
2018-09-28T05:17:37.099Z,6.27
2018-09-28T05:18:35.930Z,6.27
2018-09-28T05:19:35.421Z,6.20
2018-09-28T05:20:38.246Z,6.26
2018-09-28T05:21:37.211Z,6.07
2018-09-28T05:22:36.694Z,6.11
2018-09-28T05:23:36.058Z,6.02
2018-09-28T05:24:36.177Z,6.05
2018-09-28T05:25:36.377Z,6.08
2018-09-28T05:26:36.935Z,5.99
2018-09-28T05:27:36.742Z,5.98
2018-09-28T05:28:37.206Z,5.86
2018-09-28T05:29:43.499Z,5.99
2018-09-28T05:47:54.131Z,5.79
2018-09-28T05:48:55.564Z,5.72
2018-09-28T05:49:53.379Z,5.86
2018-09-28T05:50:53.563Z,5.90
2018-09-28T05:51:53.340Z,5.83
2018-09-28T05:52:53.168Z,5.93
2018-09-28T05:53:53.973Z,5.94
2018-09-28T05:54:54.087Z,5.98
2018-09-28T05:55:54.694Z,5.90
2018-09-28T05:56:53.674Z,5.94
2018-09-28T05:57:53.192Z,5.97
2018-09-28T05:58:52.485Z,5.99
2018-09-28T05:59:52.483Z,6.05
2018-09-28T06:00:52.669Z,6.09
2018-09-28T06:01:52.894Z,5.94
2018-09-28T06:02:53.099Z,6.07
2018-09-28T06:03:53.242Z,5.97
2018-09-28T06:04:53.449Z,6.04
2018-09-28T06:05:53.445Z,6.05
2018-09-28T06:06:53.585Z,6.14
2018-09-28T06:07:53.752Z,6.26
2018-09-28T06:09:21.664Z,6.30
2018-09-28T06:09:53.909Z,6.28
2018-09-28T06:10:54.265Z,6.26
2018-09-28T06:11:55.077Z,6.36
2018-09-28T06:12:54.348Z,6.38
2018-09-28T06:13:54.571Z,6.48
2018-09-28T06:14:56.048Z,6.52
2018-09-28T06:15:55.250Z,6.46
2018-09-28T06:16:55.085Z,6.60
2018-09-28T06:17:55.113Z,6.63
2018-09-28T06:18:55.514Z,6.56
2018-09-28T06:19:55.671Z,6.70
2018-09-28T06:20:55.793Z,6.59
2018-09-28T06:21:56.260Z,6.69
2018-09-28T06:22:56.983Z,6.62
2018-09-28T06:23:56.355Z,6.77
2018-09-28T06:24:56.366Z,6.87
2018-09-28T06:25:56.719Z,6.82
2018-09-28T06:26:56.810Z,6.79
2018-09-28T06:27:56.971Z,6.89
2018-09-28T06:28:56.995Z,6.78
2018-09-28T06:29:57.279Z,6.89
2018-09-28T06:30:57.421Z,6.89
2018-09-28T06:31:57.602Z,6.97
2018-09-28T06:32:57.845Z,7.02
2018-09-28T06:33:57.925Z,6.96
2018-09-28T06:34:58.038Z,7.06
2018-09-28T06:35:58.228Z,7.10
2018-09-28T06:36:58.469Z,7.06
2018-09-28T06:37:58.510Z,7.07
2018-09-28T06:38:58.674Z,7.18
2018-09-28T06:39:58.808Z,7.18
2018-09-28T06:40:59.039Z,7.23
2018-09-28T06:41:59.178Z,7.29
2018-09-28T06:42:59.342Z,7.28
2018-09-28T06:43:59.467Z,7.40
2018-09-28T06:44:59.613Z,7.38
2018-09-28T06:45:59.792Z,7.50
2018-09-28T06:46:59.956Z,7.51
2018-09-28T06:48:00.144Z,7.50
2018-09-28T06:49:00.233Z,7.57
2018-09-28T06:50:00.581Z,7.61
2018-09-28T06:51:00.642Z,7.67
2018-09-28T06:52:00.914Z,7.70
2018-09-28T06:53:01.085Z,7.76
2018-09-28T06:54:01.181Z,7.94
2018-09-28T06:55:01.337Z,7.93
2018-09-28T06:56:02.608Z,8.23
2018-09-28T06:57:01.642Z,8.55
2018-09-28T06:58:02.001Z,8.85
2018-09-28T06:59:02.014Z,9.04
2018-09-28T07:00:02.138Z,9.26
2018-09-28T07:01:02.322Z,9.51
2018-09-28T07:02:02.471Z,9.66
2018-09-28T07:03:02.688Z,9.80
2018-09-28T07:04:02.854Z,10.09
2018-09-28T07:05:03.000Z,10.17
2018-09-28T07:06:03.661Z,10.49
2018-09-28T07:07:03.301Z,10.63
2018-09-28T07:08:03.555Z,11.05
2018-09-28T07:09:03.783Z,11.47
2018-09-28T07:10:03.918Z,11.70
2018-09-28T07:11:04.062Z,12.02
2018-09-28T07:12:04.321Z,12.18
2018-09-28T07:13:04.452Z,12.25
2018-09-28T07:14:04.592Z,12.39
2018-09-28T07:15:04.705Z,12.40
2018-09-28T07:16:04.959Z,12.39
2018-09-28T07:17:05.093Z,12.57
2018-09-28T07:18:05.254Z,12.45
2018-09-28T07:19:05.402Z,12.24
2018-09-28T07:20:05.735Z,12.04
2018-09-28T07:21:05.811Z,11.68
2018-09-28T07:22:05.981Z,11.55
2018-09-28T07:23:06.091Z,11.40
2018-09-28T07:24:06.269Z,11.11
2018-09-28T07:25:06.589Z,10.94
2018-09-28T07:26:06.710Z,10.81
2018-09-28T07:27:06.845Z,10.79
2018-09-28T07:28:06.983Z,10.67
2018-09-28T07:29:07.244Z,10.59
2018-09-28T07:30:07.520Z,10.56
2018-09-28T07:31:07.441Z,10.57
2018-09-28T07:32:07.733Z,10.69
2018-09-28T07:33:07.962Z,10.78
2018-09-28T07:34:08.736Z,10.79
2018-09-28T07:35:08.270Z,11.02
2018-09-28T07:36:08.663Z,11.10
2018-09-28T07:37:08.730Z,11.12
2018-09-28T07:38:08.737Z,11.17
2018-09-28T07:39:09.006Z,11.17
2018-09-28T07:40:09.346Z,11.12
2018-09-28T07:41:09.251Z,11.11
2018-09-28T07:42:09.507Z,11.08
2018-09-28T07:43:09.561Z,11.19
2018-09-28T07:44:09.824Z,11.33
2018-09-28T07:45:09.977Z,11.48
2018-09-28T07:46:10.109Z,11.55
2018-09-28T07:47:10.380Z,11.59
2018-09-28T07:48:10.561Z,11.70
2018-09-28T07:49:10.615Z,11.86
2018-09-28T07:50:10.887Z,12.10
2018-09-28T07:51:11.009Z,12.28
2018-09-28T07:52:11.108Z,12.42
2018-09-28T07:53:11.415Z,12.67
2018-09-28T07:54:11.666Z,12.80
2018-09-28T07:55:11.848Z,12.91
2018-09-28T07:56:11.800Z,13.03
2018-09-28T07:57:11.962Z,12.98
2018-09-28T07:58:12.155Z,13.16
2018-09-28T07:59:12.477Z,13.08
2018-09-28T08:00:12.569Z,13.11
2018-09-28T08:01:12.734Z,13.08
2018-09-28T08:02:12.829Z,12.95
2018-09-28T08:03:13.985Z,12.98
2018-09-28T08:04:13.281Z,13.05
2018-09-28T08:05:13.284Z,13.11
2018-09-28T08:06:13.571Z,13.12
2018-09-28T08:07:13.739Z,13.15
2018-09-28T08:08:13.795Z,13.20
2018-09-28T08:09:14.031Z,13.18
2018-09-28T08:10:14.518Z,13.12
2018-09-28T08:11:14.330Z,13.15
2018-09-28T08:12:14.664Z,13.19
2018-09-28T08:13:14.810Z,13.11
2018-09-28T08:14:14.976Z,13.19
2018-09-28T08:15:14.983Z,13.16
2018-09-28T08:16:15.209Z,13.20
2018-09-28T08:17:15.315Z,13.12
2018-09-28T08:18:15.578Z,13.18
2018-09-28T08:19:15.789Z,13.20
2018-09-28T08:20:16.125Z,13.23
2018-09-28T08:21:16.091Z,13.33
2018-09-28T08:22:16.263Z,13.13
2018-09-28T08:23:16.509Z,13.12
2018-09-28T08:24:16.633Z,13.04
2018-09-28T08:25:16.846Z,12.95
2018-09-28T08:26:17.073Z,12.86
2018-09-28T08:27:17.181Z,12.78
2018-09-28T08:28:17.311Z,12.70
2018-09-28T08:29:17.624Z,12.82
2018-09-28T08:30:17.786Z,12.80
2018-09-28T08:31:17.864Z,12.80
2018-09-28T08:32:17.979Z,12.86
2018-09-28T08:33:18.221Z,12.78
2018-09-28T08:34:18.304Z,12.85
2018-09-28T08:35:18.677Z,12.85
2018-09-28T08:36:19.489Z,12.90
2018-09-28T08:37:18.853Z,13.01
2018-09-28T08:38:19.022Z,13.03
2018-09-28T08:39:19.170Z,12.97
2018-09-28T08:40:19.313Z,12.87
2018-09-28T08:41:19.484Z,13.00
2018-09-28T08:42:19.664Z,12.87
2018-09-28T08:43:19.813Z,12.93
2018-09-28T08:44:20.016Z,12.87
2018-09-28T08:45:20.236Z,12.79
2018-09-28T08:46:20.365Z,12.79
2018-09-28T08:47:20.457Z,12.85
2018-09-28T08:48:20.681Z,12.87
2018-09-28T08:49:21.150Z,13.00
2018-09-28T08:50:20.903Z,12.97
2018-09-28T08:51:21.108Z,13.01
2018-09-28T08:52:21.433Z,12.94
2018-09-28T08:53:21.521Z,13.01
2018-09-28T08:54:21.816Z,13.13
2018-09-28T08:55:21.903Z,13.13
2018-09-28T08:56:22.206Z,13.05
2018-09-28T08:57:23.548Z,13.00
2018-09-28T08:58:22.348Z,13.03
2018-09-28T08:59:22.454Z,13.18
2018-09-28T09:00:22.596Z,13.13
2018-09-28T09:01:22.980Z,13.25
2018-09-28T09:02:22.901Z,13.18
2018-09-28T09:03:23.154Z,13.22
2018-09-28T09:04:23.518Z,13.18
2018-09-28T09:05:23.654Z,13.33
2018-09-28T09:06:23.712Z,13.22
2018-09-28T09:07:23.829Z,13.15
2018-09-28T09:08:24.008Z,13.30
2018-09-28T09:09:24.233Z,13.23
2018-09-28T09:10:24.532Z,13.19
2018-09-28T09:11:24.560Z,13.23
2018-09-28T09:12:24.802Z,13.16
2018-09-28T09:13:24.989Z,13.20
2018-09-28T09:14:25.152Z,13.22
2018-09-28T09:15:25.318Z,13.16
2018-09-28T09:16:25.345Z,13.28
2018-09-28T09:17:25.523Z,13.19
2018-09-28T09:18:25.794Z,13.13
2018-09-28T09:19:25.937Z,13.16
2018-09-28T09:20:26.102Z,13.27
2018-09-28T09:21:26.160Z,13.18
2018-09-28T09:22:26.438Z,13.15
2018-09-28T09:23:26.669Z,13.28
2018-09-28T09:24:26.756Z,13.30
2018-09-28T09:25:26.934Z,13.27
2018-09-28T09:26:27.160Z,13.27
2018-09-28T09:27:27.201Z,13.27
2018-09-28T09:28:27.452Z,13.33
2018-09-28T09:29:27.601Z,13.37
2018-09-28T09:30:27.829Z,13.38
2018-09-28T09:31:28.754Z,13.47
2018-09-28T09:32:28.193Z,13.42
2018-09-28T09:33:28.255Z,13.49
2018-09-28T09:34:28.414Z,13.56
2018-09-28T09:35:28.579Z,13.60
2018-09-28T09:36:28.861Z,13.63
2018-09-28T09:37:29.019Z,13.65
2018-09-28T09:38:29.237Z,13.77
2018-09-28T09:39:29.416Z,13.81
2018-09-28T09:40:29.572Z,13.71
2018-09-28T09:41:29.643Z,13.83
2018-09-28T09:42:29.819Z,13.95
2018-09-28T09:43:30.069Z,13.85
2018-09-28T09:44:30.210Z,13.89
2018-09-28T09:45:30.341Z,13.99
2018-09-28T09:46:30.460Z,13.87
2018-09-28T09:47:30.661Z,13.95
2018-09-28T09:48:31.511Z,13.87
2018-09-28T09:49:31.039Z,14.04
2018-09-28T09:50:31.426Z,14.05
2018-09-28T09:51:31.447Z,14.17
2018-09-28T09:52:31.627Z,14.32
2018-09-28T09:53:31.840Z,14.28
2018-09-28T09:54:31.949Z,14.26
2018-09-28T09:55:32.205Z,14.32
2018-09-28T09:56:32.271Z,14.36
2018-09-28T09:57:32.504Z,14.35
2018-09-28T09:58:32.676Z,14.51
2018-09-28T09:59:32.783Z,14.53
2018-09-28T10:00:32.997Z,14.50
2018-09-28T10:01:33.229Z,14.54
2018-09-28T10:02:33.254Z,14.55
2018-09-28T10:03:33.469Z,14.58
2018-09-28T10:04:33.630Z,14.44
2018-09-28T10:05:33.776Z,14.53
2018-09-28T10:06:33.960Z,14.51
2018-09-28T10:07:34.133Z,14.47
2018-09-28T10:08:34.304Z,14.58
2018-09-28T10:09:34.581Z,14.53
2018-09-28T10:10:35.470Z,14.50
2018-09-28T10:11:34.949Z,14.41
2018-09-28T10:12:34.983Z,14.37
2018-09-28T10:13:35.057Z,14.32
2018-09-28T10:14:35.341Z,14.43
2018-09-28T10:15:35.409Z,14.50
2018-09-28T10:16:35.715Z,14.43
2018-09-28T10:17:35.824Z,14.51
2018-09-28T10:18:36.017Z,14.53
2018-09-28T10:19:36.257Z,14.43
2018-09-28T10:20:36.448Z,14.33
2018-09-28T10:21:36.458Z,14.23
2018-09-28T10:22:36.654Z,14.25
2018-09-28T10:23:36.873Z,14.08
2018-09-28T10:24:37.050Z,14.05
2018-09-28T10:25:37.150Z,14.05
2018-09-28T10:26:37.372Z,14.03
2018-09-28T10:27:37.482Z,14.10
2018-09-28T10:28:37.729Z,14.17
2018-09-28T10:29:37.831Z,14.23
2018-09-28T10:30:37.993Z,14.17
2018-09-28T10:31:38.183Z,14.11
2018-09-28T10:32:38.325Z,14.17
2018-09-28T10:33:38.590Z,14.20
2018-09-28T10:34:38.765Z,14.15
2018-09-28T10:35:38.918Z,14.15
2018-09-28T10:36:38.971Z,14.25
2018-09-28T10:37:39.175Z,14.33
2018-09-28T10:38:39.321Z,14.44
2018-09-28T10:39:39.643Z,14.43
2018-09-28T10:40:39.870Z,14.47
2018-09-28T10:41:39.973Z,14.58
2018-09-28T10:42:40.117Z,14.48
2018-09-28T10:43:40.232Z,14.55
2018-09-28T10:44:40.442Z,14.51
2018-09-28T10:45:40.654Z,14.58
2018-09-28T10:46:40.754Z,14.66
2018-09-28T10:47:40.932Z,14.77
2018-09-28T10:48:41.151Z,14.79
2018-09-28T10:49:41.261Z,14.81
2018-09-28T10:50:41.444Z,14.88
2018-09-28T10:51:41.644Z,14.85
2018-09-28T10:52:41.849Z,14.79
2018-09-28T10:53:42.019Z,14.73
2018-09-28T10:54:42.153Z,14.63
2018-09-28T10:55:42.265Z,14.60
2018-09-28T10:56:42.460Z,14.66
2018-09-28T10:57:42.756Z,14.65
2018-09-28T10:58:42.948Z,14.59
2018-09-28T10:59:43.118Z,14.72
2018-09-28T11:00:43.336Z,14.54
2018-09-28T11:01:43.601Z,14.55
2018-09-28T11:02:43.544Z,14.60
2018-09-28T11:03:43.869Z,14.55
2018-09-28T11:04:43.933Z,14.58
2018-09-28T11:05:44.038Z,14.69
2018-09-28T11:06:44.372Z,14.69
2018-09-28T11:07:45.202Z,14.58
2018-09-28T11:08:45.616Z,14.55
2018-09-28T11:09:44.924Z,14.63
2018-09-28T11:10:45.248Z,14.66
2018-09-28T11:11:45.154Z,14.66
2018-09-28T11:12:46.273Z,14.72
2018-09-28T11:13:46.086Z,14.79
2018-09-28T11:14:45.541Z,14.85
2018-09-28T11:16:46.102Z,14.97
2018-09-28T11:17:46.423Z,15.11
2018-09-28T11:18:46.360Z,15.22
2018-09-28T11:19:46.538Z,15.42
2018-09-28T11:20:46.825Z,15.47
2018-09-28T11:21:47.700Z,15.61
2018-09-28T11:22:47.817Z,15.80
2018-09-28T11:23:47.212Z,15.95
2018-09-28T11:24:47.634Z,16.09
2018-09-28T11:25:48.277Z,16.13
2018-09-28T11:26:47.682Z,15.97
2018-09-28T11:27:47.777Z,16.09
2018-09-28T11:28:48.032Z,16.09
2018-09-28T11:29:48.124Z,16.12
2018-09-28T11:30:48.436Z,16.28
2018-09-28T11:31:48.448Z,16.35
2018-09-28T11:32:48.760Z,16.57
2018-09-28T11:33:49.107Z,16.64
2018-09-28T11:34:48.975Z,16.74
2018-09-28T11:35:49.193Z,16.83
2018-09-28T11:36:49.298Z,16.68
2018-09-28T11:37:49.553Z,16.66
2018-09-28T11:38:49.687Z,16.83
2018-09-28T11:39:49.861Z,16.75
2018-09-28T11:40:49.889Z,16.68
2018-09-28T11:41:50.009Z,16.78
2018-09-28T11:42:50.392Z,16.84
2018-09-28T11:43:51.823Z,16.78
2018-09-28T11:44:50.631Z,16.87
2018-09-28T11:45:50.876Z,16.87
2018-09-28T11:46:50.980Z,16.93
2018-09-28T11:47:51.082Z,16.91
2018-09-28T11:48:51.354Z,16.93
2018-09-28T11:49:51.701Z,16.99
2018-09-28T11:50:51.763Z,17.12
2018-09-28T11:51:51.908Z,16.99
2018-09-28T11:52:52.087Z,16.86
2018-09-28T11:53:52.281Z,16.74
2018-09-28T11:54:52.401Z,16.71
2018-09-28T11:55:52.688Z,16.60
2018-09-28T11:56:52.769Z,16.51
2018-09-28T11:57:52.786Z,16.54
2018-09-28T11:58:52.936Z,16.58
2018-09-28T11:59:53.266Z,16.42
2018-09-28T12:00:53.247Z,16.28
2018-09-28T12:01:53.439Z,16.09
2018-09-28T12:02:53.588Z,15.98
2018-09-28T12:03:53.746Z,15.94
2018-09-28T12:04:53.986Z,15.98
2018-09-28T12:05:54.172Z,15.86
2018-09-28T12:06:54.390Z,15.79
2018-09-28T12:07:54.460Z,15.82
2018-09-28T12:08:54.650Z,15.88
2018-09-28T12:09:54.865Z,15.92
2018-09-28T12:10:55.001Z,15.79
2018-09-28T12:11:55.092Z,15.92
2018-09-28T12:12:55.347Z,15.94
2018-09-28T12:13:55.458Z,16.01
2018-09-28T12:14:55.672Z,16.04
2018-09-28T12:15:55.893Z,16.10
2018-09-28T12:16:56.107Z,16.09
2018-09-28T12:17:56.199Z,16.26
2018-09-28T12:18:56.284Z,16.20
2018-09-28T12:19:56.459Z,16.29
2018-09-28T12:20:56.684Z,16.33
2018-09-28T12:21:56.927Z,16.36
2018-09-28T12:22:57.046Z,16.41
2018-09-28T12:23:57.146Z,16.42
2018-09-28T12:24:57.360Z,16.36
2018-09-28T12:25:57.599Z,16.58
2018-09-28T12:26:57.700Z,16.51
2018-09-28T12:27:57.855Z,16.42
2018-09-28T12:28:58.070Z,16.36
2018-09-28T12:29:58.314Z,16.41
2018-09-28T12:30:58.302Z,16.31
2018-09-28T12:31:58.532Z,16.29
2018-09-28T12:32:58.827Z,16.24
2018-09-28T12:33:58.997Z,16.26
2018-09-28T12:34:59.075Z,16.32
2018-09-28T12:35:59.242Z,16.20
2018-09-28T12:36:59.417Z,16.28
2018-09-28T12:37:59.600Z,16.35
2018-09-28T12:39:00.086Z,16.29
2018-09-28T12:40:00.057Z,16.53
2018-09-28T12:41:00.087Z,16.61
2018-09-28T12:42:00.230Z,16.49
2018-09-28T12:43:00.332Z,16.53
2018-09-28T12:44:00.578Z,16.64
2018-09-28T12:45:01.055Z,16.57
2018-09-28T12:46:00.965Z,16.53
2018-09-28T12:47:01.059Z,16.50
2018-09-28T12:48:01.260Z,16.47
2018-09-28T12:49:01.420Z,16.49
2018-09-28T12:50:01.569Z,16.58
2018-09-28T12:51:01.783Z,16.50
2018-09-28T12:52:01.939Z,16.51
2018-09-28T12:53:02.982Z,16.60
2018-09-28T12:54:02.244Z,16.58
2018-09-28T12:55:02.411Z,16.57
2018-09-28T12:56:02.484Z,16.54
2018-09-28T12:57:02.789Z,16.57
2018-09-28T12:58:02.957Z,16.66
2018-09-28T12:59:03.131Z,16.53
2018-09-28T13:00:03.241Z,16.60
2018-09-28T13:01:03.587Z,16.57
2018-09-28T13:02:03.531Z,16.61
2018-09-28T13:03:03.844Z,16.54
2018-09-28T13:04:03.942Z,16.56
2018-09-28T13:05:04.089Z,16.47
2018-09-28T13:06:04.262Z,16.53
2018-09-28T13:07:04.428Z,16.51
2018-09-28T13:08:04.593Z,16.54
2018-09-28T13:09:04.808Z,16.60
2018-09-28T13:10:05.089Z,16.54
2018-09-28T13:11:05.129Z,16.58
2018-09-28T13:12:05.338Z,16.51
2018-09-28T13:13:05.416Z,16.49
2018-09-28T13:14:05.687Z,16.65
2018-09-28T13:15:05.927Z,16.61
2018-09-28T13:16:05.889Z,16.54
2018-09-28T13:17:06.108Z,16.66
2018-09-28T13:18:06.245Z,16.64
2018-09-28T13:19:06.511Z,16.65
2018-09-28T13:20:06.752Z,16.68
2018-09-28T13:21:06.836Z,16.72
2018-09-28T13:22:07.096Z,16.78
2018-09-28T13:23:07.083Z,16.71
2018-09-28T13:24:07.375Z,16.83
2018-09-28T13:25:07.531Z,16.83
2018-09-28T13:26:07.720Z,16.93
2018-09-28T13:27:07.796Z,17.02
2018-09-28T13:28:08.093Z,17.16
2018-09-28T13:29:08.200Z,17.24
2018-09-28T13:30:08.486Z,17.29
2018-09-28T13:31:08.651Z,17.22
2018-09-28T13:32:09.169Z,17.23
2018-09-28T13:33:08.825Z,17.31
2018-09-28T13:34:09.018Z,17.27
2018-09-28T13:35:09.370Z,17.27
2018-09-28T13:36:09.509Z,17.22
2018-09-28T13:37:09.686Z,17.27
2018-09-28T13:38:09.908Z,17.34
2018-09-28T13:39:10.061Z,17.44
2018-09-28T13:40:10.211Z,17.46
2018-09-28T13:41:10.356Z,17.49
2018-09-28T13:42:10.624Z,17.52
2018-09-28T13:43:11.457Z,17.45
2018-09-28T13:44:11.036Z,17.46
2018-09-28T13:45:11.009Z,17.48
2018-09-28T13:46:11.468Z,17.31
2018-09-28T13:47:11.423Z,17.16
2018-09-28T13:48:11.558Z,17.11
2018-09-28T13:49:11.850Z,17.15
2018-09-28T13:50:11.908Z,17.14
2018-09-28T13:51:12.076Z,17.16
2018-09-28T13:52:12.320Z,17.19
2018-09-28T13:53:12.480Z,17.14
2018-09-28T13:54:12.663Z,17.14
2018-09-28T13:55:12.775Z,17.02
2018-09-28T13:56:13.161Z,16.87
2018-09-28T13:57:13.190Z,16.65
2018-09-28T13:59:49.215Z,16.69
2018-09-28T14:01:49.639Z,16.69
2018-09-28T14:02:50.473Z,16.69
2018-09-28T14:03:49.937Z,16.74
2018-09-28T14:04:50.219Z,16.78
2018-09-28T14:05:50.315Z,17.01
2018-09-28T14:06:50.826Z,17.20
2018-09-28T14:07:50.625Z,17.27
2018-09-28T14:08:48.808Z,17.39
2018-09-28T14:09:48.124Z,17.56
2018-09-28T14:10:48.365Z,17.85
2018-09-28T14:11:48.606Z,18.26
2018-09-28T14:12:48.982Z,19.47
2018-09-28T14:13:49.457Z,19.95
2018-09-28T14:14:49.040Z,20.34
2018-09-28T14:15:49.202Z,20.51
2018-09-28T14:16:49.360Z,20.78
2018-09-28T14:17:49.576Z,20.41
2018-09-28T14:18:49.858Z,20.07
2018-09-28T14:19:49.941Z,19.64
2018-09-28T14:20:50.096Z,19.51
2018-09-28T14:21:50.493Z,19.37
2018-09-28T14:22:50.639Z,19.11
2018-09-28T14:23:50.699Z,18.89
2018-09-28T14:24:50.912Z,18.71
2018-09-28T14:25:50.986Z,18.35
2018-09-28T14:26:51.206Z,18.19
2018-09-28T14:27:51.271Z,17.85
2018-09-28T14:28:51.511Z,17.71
2018-09-28T14:29:51.596Z,17.60
2018-09-28T14:30:51.761Z,17.49
2018-09-28T14:31:51.929Z,17.38
2018-09-28T14:32:52.145Z,17.41
2018-09-28T14:33:52.330Z,17.22
2018-09-28T14:34:52.400Z,17.22
2018-09-28T14:35:52.568Z,17.08
2018-09-28T14:36:52.676Z,17.06
2018-09-28T14:37:53.025Z,16.97
2018-09-28T14:38:53.103Z,17.02
2018-09-28T14:39:53.297Z,16.91
2018-09-28T14:40:53.406Z,16.84
2018-09-28T14:41:53.620Z,16.84
2018-09-28T14:42:53.814Z,16.75
2018-09-28T14:43:54.099Z,16.72
2018-09-28T14:44:54.104Z,16.66
2018-09-28T14:45:54.325Z,16.76
2018-09-28T14:46:54.710Z,16.64
2018-09-28T14:47:54.785Z,16.68
2018-09-28T14:48:54.962Z,16.65
2018-09-28T14:50:23.139Z,16.47
2018-09-28T14:50:55.113Z,16.42
2018-09-28T14:51:55.251Z,16.49
2018-09-28T14:52:55.361Z,16.39
2018-09-28T14:53:55.634Z,16.35
2018-09-28T14:54:55.768Z,16.23
2018-09-28T14:55:56.011Z,16.04
2018-09-28T14:56:56.126Z,16.01
2018-09-28T14:57:56.478Z,16.01
2018-09-28T14:58:56.347Z,16.00
2018-09-28T14:59:56.667Z,16.04
2018-09-28T15:00:56.905Z,16.01
2018-09-28T15:01:57.031Z,15.92
2018-09-28T15:02:57.182Z,16.02
2018-09-28T15:03:57.307Z,16.00
2018-09-28T15:04:57.497Z,16.10
2018-09-28T15:05:57.699Z,16.02
2018-09-28T15:06:57.959Z,16.16
2018-09-28T15:07:58.022Z,16.26
2018-09-28T15:08:58.152Z,16.26
2018-09-28T15:09:58.374Z,16.35
2018-09-28T15:10:58.521Z,16.56
2018-09-28T15:11:58.682Z,16.54
2018-09-28T15:12:58.851Z,16.54
2018-09-28T15:13:59.077Z,16.65
2018-09-28T15:14:59.318Z,16.74
2018-09-28T15:15:59.494Z,16.71
2018-09-28T15:16:59.734Z,16.72
2018-09-28T15:17:59.844Z,16.69
2018-09-28T15:19:00.003Z,16.76
2018-09-28T15:20:00.300Z,16.74
2018-09-28T15:21:00.449Z,16.79
2018-09-28T15:22:01.066Z,16.74
2018-09-28T15:23:00.748Z,16.74
2018-09-28T15:24:00.893Z,16.75
2018-09-28T15:25:01.010Z,16.81
2018-09-28T15:26:01.179Z,16.78
2018-09-28T15:27:01.323Z,16.69
2018-09-28T15:28:01.511Z,16.81
2018-09-28T15:29:01.706Z,16.68
2018-09-28T15:30:01.816Z,16.71
2018-09-28T15:31:02.068Z,16.66
2018-09-28T15:32:02.233Z,16.65
2018-09-28T15:33:02.459Z,16.64
2018-09-28T15:34:02.586Z,16.43
2018-09-28T15:35:02.667Z,16.49
2018-09-28T15:36:03.009Z,16.43
2018-09-28T15:37:03.983Z,16.29
2018-09-28T15:38:03.405Z,16.10
2018-09-28T15:39:03.580Z,16.12
2018-09-28T15:40:03.658Z,16.01
2018-09-28T15:41:03.910Z,16.05
2018-09-28T15:42:04.149Z,16.02
2018-09-28T15:43:04.270Z,16.08
2018-09-28T15:44:04.324Z,16.15
2018-09-28T15:45:04.569Z,16.05
2018-09-28T15:46:04.725Z,16.01
2018-09-28T15:47:04.905Z,15.97
2018-09-28T15:48:05.141Z,15.95
2018-09-28T15:49:05.185Z,15.90
2018-09-28T15:50:05.349Z,15.94
2018-09-28T15:51:05.508Z,15.98
2018-09-28T15:52:05.610Z,15.90
2018-09-28T15:53:05.939Z,15.80
2018-09-28T15:54:06.827Z,15.79
2018-09-28T15:55:07.021Z,15.79
2018-09-28T15:56:06.536Z,15.75
2018-09-28T15:57:06.772Z,15.80
2018-09-28T15:58:06.859Z,15.90
2018-09-28T15:59:07.156Z,15.88
2018-09-28T16:00:07.530Z,15.88
2018-09-28T16:01:07.626Z,15.94
2018-09-28T16:02:07.621Z,15.98
2018-09-28T16:03:07.679Z,15.95
2018-09-28T16:04:08.090Z,15.97
2018-09-28T16:05:08.204Z,15.91
2018-09-28T16:13:53.648Z,15.72
2018-09-28T16:14:50.560Z,15.75
2018-09-28T16:15:48.827Z,15.79
2018-09-28T16:19:49.147Z,15.73
2018-09-28T16:21:47.617Z,15.64
2018-09-28T16:23:49.321Z,15.67
2018-09-28T16:24:46.952Z,15.62
2018-09-28T16:25:47.514Z,15.64
2018-09-28T16:26:47.613Z,15.65
2018-09-28T16:27:48.397Z,15.57
2018-09-28T16:28:47.386Z,15.65
2018-09-28T16:29:47.435Z,15.62
2018-09-28T16:30:47.579Z,15.65
2018-09-28T16:31:47.916Z,15.54
2018-09-28T16:32:48.006Z,15.58
2018-09-28T16:33:48.044Z,15.52
2018-09-28T16:34:48.330Z,15.49
2018-09-28T16:35:48.603Z,15.58
2018-09-28T16:36:48.661Z,15.59
2018-09-28T16:37:48.779Z,15.52
2018-09-28T16:38:48.868Z,15.44